Fincastle, Texas
Current Conditions -  °F | °C
As of 12:35 AM on Monday 24 Nov 2014 (Local Time) from KPSN Reporting Station
Clear Clear  
Wind Chill: 52°   Ceiling: Unl
Heat Index: 52°   Visibility: 10mi
Dew Point: 42°   Wind: 9mph
Humidity: 68%   Direction: 310°NW
Pressure: 29.82"   Gusts: NA
Location:  32.0056°N, 95.5543°W
Report Text: KPSN 240635Z AUTO 31008KT 10SM CLR 11/05 A2982 RMK AO2 T01100053
Loading
Personal Weather Stations






























Interactive Weather Map New forecast layout! Learn more

10-Day Weather Forecast

Advertisements
Track Severe Weather on mobile